CheckWX is a tool to help pilots better visualize weather data.  It is not intended as a substitute for an official pre-flight weather briefing.

02:07:28 UTC

VTPP TAF
Phitsanulok Airport
Thailand
TAF VTPP 172300Z 1800/1824 22005KT 4000 BR FEW025 BECMG 1801/1803 9999 NSW

Nov-18@
00:00 UTC

Nov-18 @ 00:00 UTC

Nov-18@
01:00 UTC

Nov-18 @ 01:00 UTC

TAF VTPP 172300Z 1800/1824 22005KT 4000 BR FEW025

Expired

Wind
  • 220° at 5 KTS
Conditions
Mist
Cloud Levels
  • Few at 2,500' AGL

Nov-18@
01:00 UTC

Nov-18 @ 01:00 UTC

Nov-19@
00:00 UTC

Nov-19 @ 00:00 UTC

BECMG 1801/1803 9999 NSW

Becoming

Becoming Conditions expected by Mon, Nov 18, 2019 @ 03:00 UTC

Wind
  • 220° at 5 KTS
Conditions
No significant weather
Cloud Levels
  • Few at 2,500' AGL